createdAt,value
2023-04-30T00:00:49.743Z,39.400
2023-04-30T00:01:49.965Z,33.400
2023-04-30T00:02:50.834Z,20.400
2023-04-30T00:03:50.717Z,20.600
2023-04-30T00:04:50.029Z,20.500
2023-04-30T00:05:50.248Z,25.800
2023-04-30T00:06:50.623Z,26.900
2023-04-30T00:07:49.712Z,18.000
2023-04-30T00:08:49.828Z,17.200
2023-04-30T00:09:50.035Z,24.400
2023-04-30T00:10:50.203Z,26.500
2023-04-30T00:11:50.381Z,30.500
2023-04-30T00:12:50.550Z,31.000
2023-04-30T00:13:49.893Z,65.500
2023-04-30T00:14:50.064Z,30.000
2023-04-30T00:15:50.297Z,29.200
2023-04-30T00:16:50.792Z,26.900
2023-04-30T00:17:50.182Z,22.700
2023-04-30T00:18:50.361Z,70.600
2023-04-30T00:19:50.556Z,66.600
2023-04-30T00:20:50.681Z,54.300
2023-04-30T00:21:49.799Z,40.000
2023-04-30T00:22:50.010Z,23.300
2023-04-30T00:23:50.184Z,37.800
2023-04-30T00:24:50.327Z,90.300
2023-04-30T00:25:50.428Z,61.000
2023-04-30T00:26:50.592Z,41.500
2023-04-30T00:27:50.756Z,32.800
2023-04-30T00:28:49.839Z,68.800
2023-04-30T00:29:49.981Z,31.200
2023-04-30T00:30:50.180Z,40.500
2023-04-30T00:31:50.578Z,60.800
2023-04-30T00:32:50.969Z,57.400
2023-04-30T00:33:50.075Z,50.800
2023-04-30T00:34:50.230Z,40.800
2023-04-30T00:35:50.399Z,83.800
2023-04-30T00:36:50.601Z,66.300
2023-04-30T00:37:50.804Z,57.700
2023-04-30T00:38:49.914Z,55.000
2023-04-30T00:39:50.109Z,34.800
2023-04-30T00:40:50.255Z,35.000
2023-04-30T00:41:50.409Z,63.900
2023-04-30T00:42:50.592Z,75.300
2023-04-30T00:43:50.744Z,31.600
2023-04-30T00:44:49.938Z,59.100
2023-04-30T00:45:50.241Z,38.900
2023-04-30T00:46:50.663Z,17.400
2023-04-30T00:47:50.036Z,40.300
2023-04-30T00:48:50.305Z,32.100
2023-04-30T00:49:50.629Z,19.000
2023-04-30T00:50:49.886Z,24.000
2023-04-30T00:51:50.135Z,31.400
2023-04-30T00:52:50.385Z,58.900
2023-04-30T00:53:50.483Z,49.200
2023-04-30T00:54:50.751Z,43.300
2023-04-30T00:55:50.006Z,81.700
2023-04-30T00:56:50.157Z,126.300
2023-04-30T00:57:50.289Z,84.700
2023-04-30T00:58:50.427Z,78.700
2023-04-30T00:59:50.591Z,50.300
2023-04-30T01:00:50.829Z,166.800
2023-04-30T01:01:50.260Z,103.900
2023-04-30T01:02:51.061Z,126.300
2023-04-30T01:03:50.606Z,50.500
2023-04-30T01:04:50.771Z,21.100
2023-04-30T01:05:49.888Z,16.900
2023-04-30T01:06:50.171Z,18.200
2023-04-30T01:07:50.316Z,27.600
2023-04-30T01:08:50.501Z,29.500
2023-04-30T01:09:50.700Z,29.100
2023-04-30T01:10:49.853Z,27.400
2023-04-30T01:11:50.026Z,21.100
2023-04-30T01:12:50.187Z,16.200
2023-04-30T01:13:50.341Z,20.600
2023-04-30T01:14:50.492Z,24.700
2023-04-30T01:15:50.752Z,90.300
2023-04-30T01:16:50.002Z,22.500
2023-04-30T01:17:50.263Z,24.200
2023-04-30T01:18:51.059Z,34.800
2023-04-30T01:19:50.261Z,31.500
2023-04-30T01:20:50.409Z,46.600
2023-04-30T01:21:50.570Z,32.200
2023-04-30T01:22:50.662Z,25.100
2023-04-30T01:23:49.828Z,22.900
2023-04-30T01:24:50.192Z,25.800
2023-04-30T01:25:50.455Z,27.800
2023-04-30T01:26:50.711Z,33.500
2023-04-30T01:27:49.899Z,32.800
2023-04-30T01:28:50.127Z,32.900
2023-04-30T01:29:50.254Z,27.300
2023-04-30T01:30:50.427Z,34.600
2023-04-30T01:31:51.003Z,26.700
2023-04-30T01:32:50.327Z,28.900
2023-04-30T01:33:50.568Z,62.800
2023-04-30T01:34:50.723Z,43.100
2023-04-30T01:35:49.875Z,34.400
2023-04-30T01:36:50.004Z,63.000
2023-04-30T01:37:50.176Z,39.200
2023-04-30T01:38:50.391Z,37.400
2023-04-30T01:39:50.531Z,46.200
2023-04-30T01:40:50.805Z,66.200
2023-04-30T01:41:49.969Z,46.300
2023-04-30T01:42:50.182Z,23.900
2023-04-30T01:43:50.370Z,58.700
2023-04-30T01:44:50.516Z,49.100
2023-04-30T01:45:50.716Z,44.400
2023-04-30T01:46:50.288Z,83.200
2023-04-30T01:47:50.746Z,50.300
2023-04-30T01:48:49.938Z,45.300
2023-04-30T01:49:50.056Z,43.900
2023-04-30T01:50:50.242Z,51.700
2023-04-30T01:51:50.356Z,56.500
2023-04-30T01:52:50.514Z,50.400
2023-04-30T01:53:50.668Z,43.100
2023-04-30T01:54:49.963Z,31.200
2023-04-30T01:55:50.600Z,69.200
2023-04-30T01:56:50.767Z,54.500
2023-04-30T01:57:49.902Z,45.600
2023-04-30T01:58:50.013Z,30.300
2023-04-30T01:59:50.203Z,26.900
2023-04-30T02:00:50.299Z,51.800
2023-04-30T02:01:50.969Z,54.700
2023-04-30T02:02:50.646Z,42.700
2023-04-30T02:03:50.410Z,71.000
2023-04-30T02:04:50.803Z,20.100
2023-04-30T02:05:49.990Z,41.100
2023-04-30T02:06:50.504Z,98.200
2023-04-30T02:07:50.821Z,122.300
2023-04-30T02:08:49.981Z,66.100
2023-04-30T02:09:50.104Z,59.800
2023-04-30T02:10:50.404Z,85.900
2023-04-30T02:11:50.608Z,124.300
2023-04-30T02:12:50.809Z,62.300
2023-04-30T02:13:49.934Z,55.000
2023-04-30T02:14:50.053Z,26.200
2023-04-30T02:15:50.273Z,35.500
2023-04-30T02:16:50.614Z,59.200
2023-04-30T02:17:49.923Z,50.400
2023-04-30T02:18:50.304Z,28.500
2023-04-30T02:19:50.441Z,65.500
2023-04-30T02:20:50.755Z,41.700
2023-04-30T02:21:51.592Z,41.000
2023-04-30T02:22:50.918Z,54.700
2023-04-30T02:23:50.032Z,45.200
2023-04-30T02:24:50.436Z,37.200
2023-04-30T02:25:50.648Z,26.500
2023-04-30T02:26:49.783Z,18.200
2023-04-30T02:27:50.037Z,28.500
2023-04-30T02:28:50.134Z,27.600
2023-04-30T02:29:50.377Z,15.400
2023-04-30T02:30:50.480Z,30.700
2023-04-30T02:31:52.117Z,20.000
2023-04-30T02:32:50.501Z,19.900
2023-04-30T02:33:50.752Z,16.300
2023-04-30T02:34:49.942Z,15.800
2023-04-30T02:35:50.067Z,16.700
2023-04-30T02:36:50.325Z,18.300
2023-04-30T02:37:50.520Z,17.800
2023-04-30T02:38:50.691Z,19.400
2023-04-30T02:39:49.853Z,16.500
2023-04-30T02:40:50.020Z,20.300
2023-04-30T02:41:50.240Z,23.500
2023-04-30T02:42:50.434Z,52.300
2023-04-30T02:43:50.708Z,24.700
2023-04-30T02:44:49.905Z,20.600
2023-04-30T02:45:50.376Z,15.200
2023-04-30T02:46:50.809Z,16.000
2023-04-30T02:47:50.239Z,15.200
2023-04-30T02:48:50.467Z,15.700
2023-04-30T02:49:50.680Z,13.800
2023-04-30T02:50:49.881Z,16.700
2023-04-30T02:51:50.024Z,16.900
2023-04-30T02:52:50.214Z,15.900
2023-04-30T02:53:50.464Z,15.900
2023-04-30T02:54:50.619Z,17.100
2023-04-30T02:55:49.816Z,16.500
2023-04-30T02:56:49.978Z,15.600
2023-04-30T02:57:50.148Z,44.700
2023-04-30T02:58:50.287Z,17.800
2023-04-30T02:59:50.760Z,16.700
2023-04-30T03:00:49.912Z,33.900
2023-04-30T03:01:50.897Z,17.500
2023-04-30T03:02:50.721Z,16.800
2023-04-30T03:03:50.185Z,18.100
2023-04-30T03:04:50.435Z,27.200
2023-04-30T03:05:50.879Z,46.700
2023-04-30T03:06:50.209Z,30.000
2023-04-30T03:07:50.372Z,26.400
2023-04-30T03:08:50.838Z,25.800
2023-04-30T03:09:50.061Z,31.700
2023-04-30T03:10:50.332Z,43.200
2023-04-30T03:11:50.506Z,63.100
2023-04-30T03:12:50.736Z,89.800
2023-04-30T03:13:50.003Z,25.400
2023-04-30T03:14:50.135Z,20.400
2023-04-30T03:15:50.466Z,25.000
2023-04-30T03:16:51.228Z,19.800
2023-04-30T03:17:50.760Z,21.200
2023-04-30T03:18:50.031Z,18.700
2023-04-30T03:19:50.270Z,17.800
2023-04-30T03:20:50.455Z,18.200
2023-04-30T03:21:50.657Z,23.000
2023-04-30T03:22:49.791Z,22.800
2023-04-30T03:23:50.200Z,21.900
2023-04-30T03:24:50.620Z,20.500
2023-04-30T03:25:50.856Z,21.400
2023-04-30T03:26:49.974Z,20.400
2023-04-30T03:27:50.205Z,21.200
2023-04-30T03:28:50.367Z,22.100
2023-04-30T03:29:50.504Z,20.800
2023-04-30T03:30:50.713Z,21.100
2023-04-30T03:31:50.193Z,18.900
2023-04-30T03:32:50.602Z,18.000
2023-04-30T03:33:50.098Z,18.900
2023-04-30T03:34:50.312Z,16.900
2023-04-30T03:35:50.510Z,18.800
2023-04-30T03:36:50.914Z,18.800
2023-04-30T03:37:50.036Z,19.600
2023-04-30T03:38:50.313Z,20.000
2023-04-30T03:39:50.991Z,20.100
2023-04-30T03:40:50.116Z,18.500
2023-04-30T03:41:50.258Z,20.200
2023-04-30T03:42:53.012Z,20.300
2023-04-30T03:44:50.810Z,21.100
2023-04-30T03:45:50.075Z,19.900
2023-04-30T03:46:50.342Z,19.700
2023-04-30T03:47:50.755Z,18.900
2023-04-30T03:48:49.846Z,19.900
2023-04-30T03:49:49.971Z,21.900
2023-04-30T03:50:50.105Z,20.800
2023-04-30T03:51:50.353Z,19.700
2023-04-30T03:52:50.485Z,19.300
2023-04-30T03:53:50.640Z,18.900
2023-04-30T03:54:49.729Z,20.000
2023-04-30T03:55:49.892Z,20.700
2023-04-30T03:56:50.184Z,18.200
2023-04-30T03:57:50.289Z,18.700
2023-04-30T03:58:50.472Z,19.100
2023-04-30T03:59:50.663Z,17.800
2023-04-30T04:00:49.897Z,19.600
2023-04-30T04:01:50.310Z,20.800
2023-04-30T04:02:50.719Z,19.500
2023-04-30T04:03:50.011Z,19.800
2023-04-30T04:04:50.264Z,18.700
2023-04-30T04:05:50.372Z,19.800
2023-04-30T04:06:50.952Z,20.300
2023-04-30T04:07:50.121Z,18.800
2023-04-30T04:08:50.244Z,20.900
2023-04-30T04:09:50.432Z,23.100
2023-04-30T04:10:50.568Z,19.000
2023-04-30T04:11:50.713Z,20.200
2023-04-30T04:12:49.812Z,21.500
2023-04-30T04:13:49.914Z,21.400
2023-04-30T04:14:50.097Z,20.600
2023-04-30T04:15:50.555Z,21.600
2023-04-30T04:16:51.017Z,20.500
2023-04-30T04:17:50.226Z,19.600
2023-04-30T04:18:50.377Z,20.900
2023-04-30T04:19:50.548Z,19.900
2023-04-30T04:20:50.703Z,22.100
2023-04-30T04:21:49.841Z,20.200
2023-04-30T04:22:49.928Z,19.100
2023-04-30T04:23:50.059Z,18.500
2023-04-30T04:24:50.189Z,20.600
2023-04-30T04:25:50.459Z,19.300
2023-04-30T04:26:51.334Z,18.600
2023-04-30T04:27:50.442Z,17.900
2023-04-30T04:28:50.670Z,20.000
2023-04-30T04:29:49.974Z,20.200
2023-04-30T04:30:50.360Z,19.200
2023-04-30T04:31:50.923Z,18.100
2023-04-30T04:32:50.453Z,18.400
2023-04-30T04:33:50.693Z,20.700
2023-04-30T04:34:49.880Z,20.800
2023-04-30T04:35:50.136Z,20.600
2023-04-30T04:36:50.320Z,21.100
2023-04-30T04:37:50.438Z,19.700
2023-04-30T04:38:50.583Z,20.100
2023-04-30T04:39:50.941Z,21.100
2023-04-30T04:40:50.045Z,21.400
2023-04-30T04:41:50.306Z,20.000
2023-04-30T04:42:50.600Z,18.400
2023-04-30T04:43:50.749Z,20.000
2023-04-30T04:44:49.825Z,20.500
2023-04-30T04:45:50.067Z,19.500
2023-04-30T04:46:51.081Z,19.600
2023-04-30T04:47:50.334Z,20.000
2023-04-30T04:48:50.520Z,20.100
2023-04-30T04:49:50.655Z,18.400
2023-04-30T04:50:49.883Z,20.200
2023-04-30T04:51:50.018Z,21.500
2023-04-30T04:52:50.204Z,20.900
2023-04-30T04:53:53.322Z,22.600
2023-04-30T04:54:50.454Z,20.500
2023-04-30T04:55:50.506Z,18.400
2023-04-30T04:56:50.633Z,19.700
2023-04-30T04:57:49.789Z,20.800
2023-04-30T04:58:49.971Z,20.300
2023-04-30T04:59:50.063Z,22.000
2023-04-30T05:00:50.296Z,22.100
2023-04-30T05:01:51.088Z,21.000
2023-04-30T05:02:50.742Z,22.100
2023-04-30T05:03:50.493Z,19.500
2023-04-30T05:04:50.769Z,20.200
2023-04-30T05:05:49.956Z,21.300
2023-04-30T05:06:50.375Z,21.000
2023-04-30T05:07:50.450Z,18.300
2023-04-30T05:08:50.551Z,21.200
2023-04-30T05:09:49.982Z,22.800
2023-04-30T05:10:50.156Z,21.700
2023-04-30T05:11:51.991Z,21.500
2023-04-30T05:12:50.174Z,20.800
2023-04-30T05:13:50.268Z,24.700
2023-04-30T05:14:50.439Z,22.000
2023-04-30T05:15:50.782Z,21.400
2023-04-30T05:16:50.261Z,22.400
2023-04-30T05:17:50.758Z,21.000
2023-04-30T05:18:49.905Z,21.400
2023-04-30T05:19:50.050Z,21.200
2023-04-30T05:20:50.268Z,20.200
2023-04-30T05:21:50.466Z,19.900
2023-04-30T05:22:50.645Z,21.400
2023-04-30T05:23:49.873Z,19.100
2023-04-30T05:24:50.130Z,20.100
2023-04-30T05:25:50.297Z,19.600
2023-04-30T05:26:50.520Z,21.300
2023-04-30T05:27:50.643Z,17.600
2023-04-30T05:28:49.808Z,20.100
2023-04-30T05:29:49.892Z,18.200
2023-04-30T05:30:50.180Z,19.300
2023-04-30T05:31:50.569Z,18.900
2023-04-30T05:32:51.014Z,19.000
2023-04-30T05:33:50.241Z,20.800
2023-04-30T05:34:50.391Z,18.700
2023-04-30T05:35:50.559Z,18.400
2023-04-30T05:36:50.639Z,18.000
2023-04-30T05:37:49.808Z,18.200
2023-04-30T05:38:49.987Z,18.400
2023-04-30T05:39:50.135Z,17.800
2023-04-30T05:40:50.416Z,18.200
2023-04-30T05:41:53.524Z,18.900
2023-04-30T05:42:50.730Z,19.800
2023-04-30T05:45:50.449Z,17.800
2023-04-30T05:46:50.689Z,19.400
2023-04-30T05:47:50.026Z,17.800
2023-04-30T05:48:50.388Z,18.000
2023-04-30T05:49:53.927Z,19.000
2023-04-30T05:52:50.437Z,19.000
2023-04-30T05:53:50.825Z,17.500
2023-04-30T05:54:52.869Z,18.100
2023-04-30T05:57:50.480Z,17.600
2023-04-30T05:58:50.629Z,18.500
2023-04-30T05:59:49.772Z,17.200
2023-04-30T06:00:49.919Z,18.700
2023-04-30T06:01:50.385Z,17.900
2023-04-30T06:02:50.992Z,18.900
2023-04-30T06:04:50.487Z,19.100
2023-04-30T06:05:52.795Z,18.200
2023-04-30T06:06:50.190Z,17.500
2023-04-30T06:07:50.382Z,17.700
2023-04-30T06:08:50.564Z,18.100
2023-04-30T06:09:50.687Z,17.400
2023-04-30T06:10:50.058Z,15.900
2023-04-30T06:11:50.269Z,16.400
2023-04-30T06:12:50.441Z,16.300
2023-04-30T06:13:50.555Z,15.300
2023-04-30T06:14:50.691Z,17.900
2023-04-30T06:15:49.815Z,18.200
2023-04-30T06:16:50.148Z,17.000
2023-04-30T06:17:50.596Z,15.700
2023-04-30T06:18:53.936Z,16.800
2023-04-30T06:19:50.342Z,17.400
2023-04-30T06:20:50.577Z,17.200
2023-04-30T06:21:50.762Z,16.500
2023-04-30T06:22:49.848Z,16.300
2023-04-30T06:23:50.000Z,16.900
2023-04-30T06:24:50.128Z,16.800
2023-04-30T06:25:50.316Z,16.300
2023-04-30T06:26:50.440Z,17.300
2023-04-30T06:27:50.576Z,16.200
2023-04-30T06:28:50.764Z,15.400
2023-04-30T06:29:49.856Z,16.500
2023-04-30T06:30:50.068Z,15.700
2023-04-30T06:31:50.679Z,16.600
2023-04-30T06:32:50.087Z,15.900
2023-04-30T06:33:50.265Z,16.600
2023-04-30T06:34:50.433Z,16.200
2023-04-30T06:35:50.680Z,15.400
2023-04-30T06:36:49.953Z,15.000
2023-04-30T06:37:52.158Z,16.600
2023-04-30T06:38:50.255Z,14.700
2023-04-30T06:39:50.312Z,14.100
2023-04-30T06:40:50.479Z,15.200
2023-04-30T06:41:50.573Z,16.400
2023-04-30T06:42:50.890Z,14.700
2023-04-30T06:43:50.012Z,15.300
2023-04-30T06:44:50.404Z,15.300
2023-04-30T06:45:50.848Z,13.300
2023-04-30T06:46:50.129Z,14.300
2023-04-30T06:47:50.501Z,15.200
2023-04-30T06:48:50.705Z,16.100
2023-04-30T06:49:50.012Z,13.700
2023-04-30T06:50:50.150Z,14.100
2023-04-30T06:51:50.425Z,14.300
2023-04-30T06:52:50.614Z,15.700
2023-04-30T06:53:50.788Z,13.500
2023-04-30T06:54:49.898Z,14.300
2023-04-30T06:55:50.106Z,13.600
2023-04-30T06:56:50.252Z,13.400
2023-04-30T06:57:50.380Z,13.000
2023-04-30T06:58:50.607Z,12.700
2023-04-30T06:59:49.777Z,12.300
2023-04-30T07:00:49.948Z,11.700
2023-04-30T07:01:50.413Z,11.700
2023-04-30T07:03:51.277Z,12.100
2023-04-30T07:04:50.552Z,12.600
2023-04-30T07:05:50.734Z,11.200
2023-04-30T07:06:50.023Z,11.900
2023-04-30T07:07:50.157Z,12.100
2023-04-30T07:08:50.339Z,12.800
2023-04-30T07:09:53.491Z,12.300
2023-04-30T07:11:50.112Z,12.500
2023-04-30T07:12:50.386Z,12.500
2023-04-30T07:13:50.787Z,12.700
2023-04-30T07:14:49.909Z,11.400
2023-04-30T07:15:50.141Z,11.000
2023-04-30T07:16:50.727Z,11.700
2023-04-30T07:17:50.361Z,10.900
2023-04-30T07:18:50.485Z,10.800
2023-04-30T07:19:50.659Z,9.500
2023-04-30T07:20:50.013Z,10.500
2023-04-30T07:21:50.267Z,11.400
2023-04-30T07:22:50.595Z,10.400
2023-04-30T07:23:50.804Z,10.000
2023-04-30T07:24:49.951Z,10.200
2023-04-30T07:25:50.252Z,10.200
2023-04-30T07:26:50.331Z,10.200
2023-04-30T07:27:50.428Z,9.200
2023-04-30T07:28:50.605Z,10.200
2023-04-30T07:29:50.760Z,10.600
2023-04-30T07:30:49.863Z,11.500
2023-04-30T07:31:50.345Z,9.500
2023-04-30T07:32:50.767Z,9.500
2023-04-30T07:33:49.908Z,8.700
2023-04-30T07:34:50.120Z,9.700
2023-04-30T07:35:50.358Z,9.800
2023-04-30T07:36:50.668Z,9.500
2023-04-30T07:37:53.179Z,9.200
2023-04-30T07:38:50.273Z,10.500
2023-04-30T07:39:50.380Z,10.100
2023-04-30T07:40:55.511Z,9.400
2023-04-30T07:42:49.750Z,9.800
2023-04-30T07:43:50.549Z,9.500
2023-04-30T07:44:50.741Z,8.800
2023-04-30T07:45:49.967Z,10.200
2023-04-30T07:46:50.549Z,8.600
2023-04-30T07:47:50.939Z,8.800
2023-04-30T07:48:50.068Z,9.300
2023-04-30T07:49:50.217Z,9.900
2023-04-30T07:50:52.828Z,10.200
2023-04-30T07:51:50.304Z,9.600
2023-04-30T07:52:50.450Z,9.800
2023-04-30T07:53:50.928Z,9.600
2023-04-30T07:54:50.119Z,7.800
2023-04-30T07:55:50.297Z,8.000
2023-04-30T07:56:50.493Z,8.100
2023-04-30T07:57:50.628Z,7.100
2023-04-30T07:58:49.756Z,7.500
2023-04-30T07:59:53.706Z,8.000
2023-04-30T08:00:49.867Z,7.900
2023-04-30T08:01:50.288Z,8.000
2023-04-30T08:02:51.643Z,6.400
2023-04-30T08:03:50.261Z,6.700
2023-04-30T08:04:50.638Z,7.300
2023-04-30T08:05:49.755Z,8.100
2023-04-30T08:06:50.226Z,7.700
2023-04-30T08:07:50.412Z,7.300
2023-04-30T08:08:52.119Z,6.700
2023-04-30T08:11:50.430Z,7.500
2023-04-30T08:12:50.548Z,6.100
2023-04-30T08:13:50.702Z,6.900
2023-04-30T08:14:49.881Z,6.900
2023-04-30T08:15:50.002Z,7.400
2023-04-30T08:16:50.533Z,7.500
2023-04-30T08:17:51.041Z,6.800
2023-04-30T08:18:50.236Z,7.000
2023-04-30T08:19:50.404Z,6.900
2023-04-30T08:20:50.524Z,6.900
2023-04-30T08:21:50.651Z,7.200
2023-04-30T08:22:50.116Z,6.200
2023-04-30T08:23:50.288Z,6.300
2023-04-30T08:24:50.448Z,6.600
2023-04-30T08:25:50.575Z,7.200
2023-04-30T08:26:50.960Z,6.400
2023-04-30T08:27:50.731Z,5.900
2023-04-30T08:28:49.892Z,6.000
2023-04-30T08:29:50.051Z,5.800
2023-04-30T08:30:50.232Z,5.700
2023-04-30T08:31:50.650Z,5.900
2023-04-30T08:32:49.996Z,5.800
2023-04-30T08:33:50.223Z,5.500
2023-04-30T08:34:50.434Z,5.300
2023-04-30T08:35:50.550Z,4.600
2023-04-30T08:36:50.740Z,4.500
2023-04-30T08:37:49.880Z,5.100
2023-04-30T08:38:49.977Z,5.400
2023-04-30T08:39:50.191Z,5.100
2023-04-30T08:42:50.296Z,4.800
2023-04-30T08:43:50.469Z,5.000
2023-04-30T08:44:50.628Z,5.000
2023-04-30T08:45:50.838Z,5.000
2023-04-30T08:46:50.104Z,5.300
2023-04-30T08:47:50.628Z,5.100
2023-04-30T08:48:49.739Z,4.900
2023-04-30T08:49:49.844Z,4.600
2023-04-30T08:50:50.013Z,4.100
2023-04-30T08:51:50.225Z,4.300
2023-04-30T08:52:50.392Z,3.900
2023-04-30T08:53:50.479Z,4.400
2023-04-30T08:54:50.663Z,4.900
2023-04-30T08:55:50.113Z,4.400
2023-04-30T08:56:50.382Z,4.100
2023-04-30T08:57:50.740Z,4.700
2023-04-30T08:58:49.792Z,3.900
2023-04-30T08:59:50.375Z,4.900
2023-04-30T09:00:50.691Z,4.500
2023-04-30T09:01:53.733Z,5.500
2023-04-30T09:04:50.571Z,4.200
2023-04-30T09:05:50.745Z,4.600
2023-04-30T09:06:50.161Z,4.700
2023-04-30T09:08:03.417Z,4.200
2023-04-30T09:09:51.633Z,4.300
2023-04-30T09:10:50.808Z,3.900
2023-04-30T09:11:51.831Z,4.200
2023-04-30T09:12:54.432Z,3.800
2023-04-30T09:13:51.519Z,4.400
2023-04-30T09:14:51.729Z,4.500
2023-04-30T09:15:51.012Z,4.300
2023-04-30T09:16:51.660Z,4.000
2023-04-30T09:17:51.554Z,3.700
2023-04-30T09:18:51.771Z,4.200
2023-04-30T09:19:50.920Z,4.000
2023-04-30T09:20:51.072Z,3.900
2023-04-30T09:21:51.251Z,4.200
2023-04-30T09:22:51.420Z,3.800
2023-04-30T09:23:51.674Z,3.800
2023-04-30T09:24:50.877Z,4.800
2023-04-30T09:25:51.080Z,4.400
2023-04-30T09:26:51.290Z,4.600
2023-04-30T09:27:51.471Z,4.400
2023-04-30T09:28:51.608Z,8.000
2023-04-30T09:29:51.792Z,4.800
2023-04-30T09:30:51.006Z,5.900
2023-04-30T09:31:51.698Z,4.600
2023-04-30T09:32:50.968Z,3.700
2023-04-30T09:33:51.198Z,4.400
2023-04-30T09:34:51.480Z,3.900
2023-04-30T09:35:51.596Z,3.600
2023-04-30T09:36:52.137Z,4.100
2023-04-30T09:37:51.222Z,3.500
2023-04-30T09:38:51.408Z,3.400
2023-04-30T09:39:52.527Z,3.300
2023-04-30T09:40:51.030Z,3.200
2023-04-30T09:41:51.225Z,3.600
2023-04-30T09:42:51.448Z,3.100
2023-04-30T09:43:51.534Z,3.900
2023-04-30T09:44:51.735Z,3.600
2023-04-30T09:45:51.883Z,3.200
2023-04-30T09:46:51.332Z,4.200
2023-04-30T09:47:52.080Z,3.700
2023-04-30T09:48:51.089Z,3.300
2023-04-30T09:49:51.207Z,3.800
2023-04-30T09:50:51.418Z,3.600
2023-04-30T09:51:51.524Z,3.300
2023-04-30T09:52:51.663Z,3.400
2023-04-30T09:53:50.683Z,3.500
2023-04-30T09:54:50.828Z,3.100
2023-04-30T09:55:50.981Z,3.000
2023-04-30T09:56:51.182Z,3.700
2023-04-30T09:57:51.304Z,3.600
2023-04-30T09:58:51.422Z,3.500
2023-04-30T09:59:51.581Z,3.800
2023-04-30T10:00:52.001Z,4.300
2023-04-30T10:01:51.092Z,3.800
2023-04-30T10:02:51.543Z,3.900
2023-04-30T10:03:51.932Z,4.000
2023-04-30T10:04:51.014Z,4.400
2023-04-30T10:05:51.141Z,4.100
2023-04-30T10:06:51.784Z,4.200
2023-04-30T10:07:51.033Z,3.900
2023-04-30T10:08:51.204Z,4.300
2023-04-30T10:09:51.401Z,3.700
2023-04-30T10:10:51.591Z,3.800
2023-04-30T10:11:51.763Z,4.300
2023-04-30T10:12:50.882Z,3.800
2023-04-30T10:13:51.016Z,3.800
2023-04-30T10:14:51.152Z,4.200
2023-04-30T10:15:51.271Z,4.100
2023-04-30T10:16:51.729Z,4.000
2023-04-30T10:17:51.033Z,4.000
2023-04-30T10:18:51.199Z,3.800
2023-04-30T10:19:51.393Z,4.000
2023-04-30T10:20:51.548Z,4.500
2023-04-30T10:21:51.742Z,4.200
2023-04-30T10:22:50.812Z,4.500
2023-04-30T10:23:50.895Z,4.100
2023-04-30T10:24:50.983Z,4.100
2023-04-30T10:25:51.062Z,3.800
2023-04-30T10:26:51.189Z,3.800
2023-04-30T10:27:51.423Z,3.500
2023-04-30T10:28:51.599Z,3.800
2023-04-30T10:29:51.827Z,3.500
2023-04-30T10:30:50.963Z,3.900
2023-04-30T10:31:51.322Z,3.100
2023-04-30T10:32:51.990Z,3.600
2023-04-30T10:33:51.168Z,3.700
2023-04-30T10:34:51.663Z,3.400
2023-04-30T10:35:50.897Z,3.700
2023-04-30T10:36:51.137Z,3.600
2023-04-30T10:37:51.306Z,3.600
2023-04-30T10:38:51.656Z,3.100
2023-04-30T10:39:50.763Z,3.500
2023-04-30T10:40:50.992Z,3.500
2023-04-30T10:41:51.140Z,3.100
2023-04-30T10:42:51.488Z,3.200
2023-04-30T10:43:51.684Z,3.900
2023-04-30T10:44:50.753Z,4.400
2023-04-30T10:45:51.041Z,3.400
2023-04-30T10:46:51.510Z,3.300
2023-04-30T10:47:52.070Z,3.700
2023-04-30T10:48:51.426Z,3.300
2023-04-30T10:49:51.851Z,3.400
2023-04-30T10:50:50.977Z,3.500
2023-04-30T10:51:51.163Z,3.900
2023-04-30T10:52:51.394Z,4.400
2023-04-30T10:53:51.593Z,3.800
2023-04-30T10:54:51.784Z,3.900
2023-04-30T10:55:50.952Z,3.900
2023-04-30T10:56:51.091Z,4.100
2023-04-30T10:57:51.264Z,3.500
2023-04-30T10:58:51.404Z,3.100
2023-04-30T10:59:51.648Z,3.200
2023-04-30T11:00:50.803Z,3.300
2023-04-30T11:01:51.702Z,3.400
2023-04-30T11:02:51.493Z,3.000
2023-04-30T11:03:51.761Z,3.000
2023-04-30T11:04:51.333Z,2.600
2023-04-30T11:05:51.492Z,3.800
2023-04-30T11:06:52.175Z,3.200
2023-04-30T11:07:51.400Z,2.800
2023-04-30T11:08:51.608Z,2.600
2023-04-30T11:09:51.766Z,3.400
2023-04-30T11:10:50.885Z,3.500
2023-04-30T11:11:51.024Z,3.100
2023-04-30T11:12:51.236Z,2.800
2023-04-30T11:13:51.472Z,2.600
2023-04-30T11:14:51.580Z,3.400
2023-04-30T11:15:52.012Z,2.800
2023-04-30T11:16:51.360Z,2.800
2023-04-30T11:17:51.775Z,2.300
2023-04-30T11:18:50.958Z,3.000
2023-04-30T11:19:51.089Z,2.400
2023-04-30T11:20:51.262Z,2.500
2023-04-30T11:21:51.411Z,2.400
2023-04-30T11:22:51.511Z,2.300
2023-04-30T11:24:00.456Z,2.700
2023-04-30T11:26:50.832Z,3.100
2023-04-30T11:27:51.014Z,2.800
2023-04-30T11:28:51.260Z,2.700
2023-04-30T11:29:51.662Z,3.200
2023-04-30T11:30:50.814Z,3.400
2023-04-30T11:31:51.190Z,3.200
2023-04-30T11:32:51.579Z,2.600
2023-04-30T11:33:51.775Z,2.600
2023-04-30T11:34:50.929Z,3.600
2023-04-30T11:35:51.148Z,2.500
2023-04-30T11:36:51.364Z,2.800
2023-04-30T11:37:51.496Z,2.400
2023-04-30T11:38:51.612Z,2.300
2023-04-30T11:39:51.687Z,2.600
2023-04-30T11:40:50.821Z,2.300
2023-04-30T11:41:50.965Z,2.600
2023-04-30T11:42:51.263Z,2.500
2023-04-30T11:43:51.432Z,2.300
2023-04-30T11:44:51.609Z,2.300
2023-04-30T11:45:51.771Z,2.400
2023-04-30T11:46:51.119Z,2.600
2023-04-30T11:47:51.540Z,3.500
2023-04-30T11:48:50.747Z,3.100
2023-04-30T11:49:50.843Z,4.900
2023-04-30T11:50:51.027Z,3.800
2023-04-30T11:51:51.143Z,2.300
2023-04-30T11:52:51.333Z,2.500
2023-04-30T11:53:51.489Z,2.600
2023-04-30T11:54:51.639Z,2.600
2023-04-30T11:55:50.765Z,2.800
2023-04-30T11:56:50.899Z,2.100
2023-04-30T11:57:51.221Z,1.600
2023-04-30T11:58:51.344Z,1.600
2023-04-30T11:59:51.521Z,1.900
2023-04-30T12:00:51.797Z,1.900
2023-04-30T12:01:51.079Z,2.100
2023-04-30T12:02:52.166Z,3.500
2023-04-30T12:03:52.529Z,3.500
2023-04-30T12:05:51.242Z,2.300
2023-04-30T12:06:51.763Z,2.000
2023-04-30T12:07:50.946Z,3.000
2023-04-30T12:08:51.078Z,3.900
2023-04-30T12:09:51.237Z,3.000
2023-04-30T12:10:51.382Z,2.700
2023-04-30T12:11:51.537Z,1.800
2023-04-30T12:12:54.639Z,1.800
2023-04-30T12:15:50.923Z,1.900
2023-04-30T12:16:51.466Z,2.100
2023-04-30T12:17:51.995Z,1.800
2023-04-30T12:18:54.149Z,2.300
2023-04-30T12:19:51.205Z,2.300
2023-04-30T12:20:51.318Z,2.200
2023-04-30T12:21:51.607Z,2.000
2023-04-30T12:22:51.809Z,1.900
2023-04-30T12:23:50.933Z,2.000
2023-04-30T12:24:50.996Z,2.600
2023-04-30T12:25:51.190Z,2.100
2023-04-30T12:26:51.328Z,1.600
2023-04-30T12:27:51.475Z,2.100
2023-04-30T12:28:51.617Z,2.100
2023-04-30T12:29:51.947Z,1.600
2023-04-30T12:30:51.096Z,1.700
2023-04-30T12:31:51.528Z,1.500
2023-04-30T12:32:52.096Z,1.900
2023-04-30T12:33:51.276Z,1.300
2023-04-30T12:34:52.631Z,1.500
2023-04-30T12:35:51.724Z,1.800
2023-04-30T12:36:50.887Z,1.900
2023-04-30T12:37:51.060Z,2.900
2023-04-30T12:38:51.222Z,2.700
2023-04-30T12:39:51.366Z,2.000
2023-04-30T12:40:51.524Z,1.800
2023-04-30T12:41:51.641Z,1.600
2023-04-30T12:42:50.893Z,1.500
2023-04-30T12:43:51.031Z,1.700
2023-04-30T12:44:51.315Z,1.900
2023-04-30T12:45:51.805Z,1.900
2023-04-30T12:46:51.253Z,1.700
2023-04-30T12:47:52.418Z,1.500
2023-04-30T12:48:51.743Z,1.600
2023-04-30T12:49:50.834Z,2.100
2023-04-30T12:50:50.984Z,1.800
2023-04-30T12:51:51.279Z,1.900
2023-04-30T12:52:51.423Z,1.900
2023-04-30T12:53:51.557Z,1.700
2023-04-30T12:54:51.803Z,1.800
2023-04-30T12:55:50.994Z,2.100
2023-04-30T12:56:51.212Z,1.900
2023-04-30T12:57:51.357Z,1.700
2023-04-30T12:58:51.826Z,2.600
2023-04-30T12:59:50.926Z,2.300
2023-04-30T13:00:51.149Z,2.200
2023-04-30T13:01:51.714Z,1.700